sensor_id;sensor_type;location;lat;lon;timestamp;pressure;altitude;pressure_sealevel;temperature
67501;BMP180;54349;52.528;19.760;2022-08-02T00:01:02;100526.00;;;22.30
67501;BMP180;54349;52.528;19.760;2022-08-02T00:03:30;100530.00;;;22.30
67501;BMP180;54349;52.528;19.760;2022-08-02T00:06:00;100526.60;;;22.20
67501;BMP180;54349;52.528;19.760;2022-08-02T00:08:28;100530.20;;;22.20
67501;BMP180;54349;52.528;19.760;2022-08-02T00:10:56;100529.40;;;22.20
67501;BMP180;54349;52.528;19.760;2022-08-02T00:13:25;100533.20;;;22.20
67501;BMP180;54349;52.528;19.760;2022-08-02T00:15:53;100528.80;;;22.30
67501;BMP180;54349;52.528;19.760;2022-08-02T00:18:22;100532.00;;;22.30
67501;BMP180;54349;52.528;19.760;2022-08-02T00:20:50;100528.40;;;22.12
67501;BMP180;54349;52.528;19.760;2022-08-02T00:23:18;100529.20;;;22.10
67501;BMP180;54349;52.528;19.760;2022-08-02T00:25:47;100532.80;;;22.14
67501;BMP180;54349;52.528;19.760;2022-08-02T00:28:24;100536.60;;;22.20
67501;BMP180;54349;52.528;19.760;2022-08-02T00:30:59;100535.00;;;22.20
67501;BMP180;54349;52.528;19.760;2022-08-02T00:33:28;100535.20;;;22.26
67501;BMP180;54349;52.528;19.760;2022-08-02T00:36:16;100533.60;;;22.14
67501;BMP180;54349;52.528;19.760;2022-08-02T00:38:44;100534.00;;;22.10
67501;BMP180;54349;52.528;19.760;2022-08-02T00:41:18;100538.40;;;22.10
67501;BMP180;54349;52.528;19.760;2022-08-02T00:43:49;100542.20;;;22.10
67501;BMP180;54349;52.528;19.760;2022-08-02T00:46:19;100547.40;;;22.20
67501;BMP180;54349;52.528;19.760;2022-08-02T00:48:48;100546.00;;;22.20
67501;BMP180;54349;52.528;19.760;2022-08-02T00:51:16;100546.80;;;22.20
67501;BMP180;54349;52.528;19.760;2022-08-02T00:53:45;100545.60;;;22.00
67501;BMP180;54349;52.528;19.760;2022-08-02T00:56:13;100551.40;;;22.00
67501;BMP180;54349;52.528;19.760;2022-08-02T00:58:41;100554.00;;;22.02
67501;BMP180;54349;52.528;19.760;2022-08-02T01:01:09;100552.60;;;22.10
67501;BMP180;54349;52.528;19.760;2022-08-02T01:03:37;100551.40;;;22.10
67501;BMP180;54349;52.528;19.760;2022-08-02T01:06:06;100556.20;;;22.20
67501;BMP180;54349;52.528;19.760;2022-08-02T01:08:39;100556.60;;;22.10
67501;BMP180;54349;52.528;19.760;2022-08-02T01:11:07;100556.40;;;22.00
67501;BMP180;54349;52.528;19.760;2022-08-02T01:13:36;100558.60;;;22.00
67501;BMP180;54349;52.528;19.760;2022-08-02T01:16:13;100559.80;;;22.00
67501;BMP180;54349;52.528;19.760;2022-08-02T01:18:49;100561.20;;;22.10
67501;BMP180;54349;52.528;19.760;2022-08-02T01:21:40;100564.00;;;22.10
67501;BMP180;54349;52.528;19.760;2022-08-02T01:24:52;100571.00;;;22.16
67501;BMP180;54349;52.528;19.760;2022-08-02T01:30:38;100567.60;;;21.98
67501;BMP180;54349;52.528;19.760;2022-08-02T01:33:11;100569.20;;;22.00
67501;BMP180;54349;52.528;19.760;2022-08-02T01:35:51;100573.00;;;22.00
67501;BMP180;54349;52.528;19.760;2022-08-02T01:38:32;100572.60;;;22.10
67501;BMP180;54349;52.528;19.760;2022-08-02T01:41:04;100571.40;;;22.10
67501;BMP180;54349;52.528;19.760;2022-08-02T01:43:38;100570.00;;;22.00
67501;BMP180;54349;52.528;19.760;2022-08-02T01:46:13;100568.60;;;21.90
67501;BMP180;54349;52.528;19.760;2022-08-02T01:48:44;100571.40;;;21.90
67501;BMP180;54349;52.528;19.760;2022-08-02T01:51:19;100572.80;;;22.00
67501;BMP180;54349;52.528;19.760;2022-08-02T01:54:14;100575.40;;;22.00
67501;BMP180;54349;52.528;19.760;2022-08-02T01:56:44;100577.60;;;22.08
67501;BMP180;54349;52.528;19.760;2022-08-02T01:59:18;100575.60;;;22.10
67501;BMP180;54349;52.528;19.760;2022-08-02T02:01:51;100583.40;;;21.90
67501;BMP180;54349;52.528;19.760;2022-08-02T02:04:25;100580.40;;;21.90
67501;BMP180;54349;52.528;19.760;2022-08-02T02:06:56;100587.60;;;21.92
67501;BMP180;54349;52.528;19.760;2022-08-02T02:09:29;100587.40;;;22.00
67501;BMP180;54349;52.528;19.760;2022-08-02T02:11:59;100592.00;;;22.00
67501;BMP180;54349;52.528;19.760;2022-08-02T02:14:43;100591.80;;;22.10
67501;BMP180;54349;52.528;19.760;2022-08-02T02:17:20;100589.60;;;22.10
67501;BMP180;54349;52.528;19.760;2022-08-02T02:20:16;100594.20;;;21.98
67501;BMP180;54349;52.528;19.760;2022-08-02T02:22:45;100588.80;;;21.90
67501;BMP180;54349;52.528;19.760;2022-08-02T02:25:19;100590.60;;;21.98
67501;BMP180;54349;52.528;19.760;2022-08-02T02:28:10;100586.20;;;22.00
67501;BMP180;54349;52.528;19.760;2022-08-02T02:30:42;100584.40;;;22.02
67501;BMP180;54349;52.528;19.760;2022-08-02T02:33:13;100589.80;;;22.10
67501;BMP180;54349;52.528;19.760;2022-08-02T02:35:49;100586.80;;;22.10
67501;BMP180;54349;52.528;19.760;2022-08-02T02:38:21;100590.20;;;21.90
67501;BMP180;54349;52.528;19.760;2022-08-02T02:40:50;100584.20;;;21.90
67501;BMP180;54349;52.528;19.760;2022-08-02T02:43:20;100588.00;;;21.90
67501;BMP180;54349;52.528;19.760;2022-08-02T02:45:50;100586.40;;;22.00
67501;BMP180;54349;52.528;19.760;2022-08-02T02:48:21;100585.60;;;22.00
67501;BMP180;54349;52.528;19.760;2022-08-02T02:50:50;100589.00;;;22.06
67501;BMP180;54349;52.528;19.760;2022-08-02T02:53:19;100583.60;;;22.10
67501;BMP180;54349;52.528;19.760;2022-08-02T02:55:49;100583.40;;;22.00
67501;BMP180;54349;52.528;19.760;2022-08-02T02:58:30;100576.40;;;21.90
67501;BMP180;54349;52.528;19.760;2022-08-02T03:01:00;100572.60;;;21.90
67501;BMP180;54349;52.528;19.760;2022-08-02T03:04:10;100574.40;;;21.96
67501;BMP180;54349;52.528;19.760;2022-08-02T03:06:40;100570.60;;;22.00
67501;BMP180;54349;52.528;19.760;2022-08-02T03:09:09;100568.20;;;22.00
67501;BMP180;54349;52.528;19.760;2022-08-02T03:11:40;100564.40;;;22.10
67501;BMP180;54349;52.528;19.760;2022-08-02T03:14:11;100567.80;;;22.00
67501;BMP180;54349;52.528;19.760;2022-08-02T03:16:49;100573.80;;;21.90
67501;BMP180;54349;52.528;19.760;2022-08-02T03:19:20;100574.60;;;21.90
67501;BMP180;54349;52.528;19.760;2022-08-02T03:21:50;100572.80;;;22.00
67501;BMP180;54349;52.528;19.760;2022-08-02T03:24:24;100571.00;;;22.00
67501;BMP180;54349;52.528;19.760;2022-08-02T03:26:55;100565.60;;;22.08
67501;BMP180;54349;52.528;19.760;2022-08-02T03:29:23;100567.20;;;22.10
67501;BMP180;54349;52.528;19.760;2022-08-02T03:31:52;100566.80;;;22.00
67501;BMP180;54349;52.528;19.760;2022-08-02T03:34:21;100571.80;;;21.90
67501;BMP180;54349;52.528;19.760;2022-08-02T03:36:54;100574.60;;;21.90
67501;BMP180;54349;52.528;19.760;2022-08-02T03:39:24;100578.80;;;22.00
67501;BMP180;54349;52.528;19.760;2022-08-02T03:41:54;100578.00;;;22.00
67501;BMP180;54349;52.528;19.760;2022-08-02T03:44:25;100577.00;;;22.02
67501;BMP180;54349;52.528;19.760;2022-08-02T03:46:54;100575.40;;;22.10
67501;BMP180;54349;52.528;19.760;2022-08-02T03:49:23;100579.00;;;22.04
67501;BMP180;54349;52.528;19.760;2022-08-02T03:51:53;100583.00;;;21.90
67501;BMP180;54349;52.528;19.760;2022-08-02T03:54:22;100584.80;;;21.90
67501;BMP180;54349;52.528;19.760;2022-08-02T03:57:01;100597.20;;;21.94
67501;BMP180;54349;52.528;19.760;2022-08-02T03:59:42;100600.00;;;22.00
67501;BMP180;54349;52.528;19.760;2022-08-02T04:02:12;100604.00;;;22.00
67501;BMP180;54349;52.528;19.760;2022-08-02T04:04:41;100604.40;;;22.04
67501;BMP180;54349;52.528;19.760;2022-08-02T04:07:09;100607.60;;;22.10
67501;BMP180;54349;52.528;19.760;2022-08-02T04:09:38;100612.20;;;21.90
67501;BMP180;54349;52.528;19.760;2022-08-02T04:12:06;100610.60;;;21.90
67501;BMP180;54349;52.528;19.760;2022-08-02T04:14:35;100614.40;;;21.90
67501;BMP180;54349;52.528;19.760;2022-08-02T04:17:08;100622.00;;;22.00
67501;BMP180;54349;52.528;19.760;2022-08-02T04:19:44;100620.20;;;22.00
67501;BMP180;54349;52.528;19.760;2022-08-02T04:22:25;100620.80;;;22.08
67501;BMP180;54349;52.528;19.760;2022-08-02T04:24:59;100620.80;;;22.10
67501;BMP180;54349;52.528;19.760;2022-08-02T04:27:30;100624.80;;;21.90
67501;BMP180;54349;52.528;19.760;2022-08-02T04:30:20;100626.80;;;21.90
67501;BMP180;54349;52.528;19.760;2022-08-02T04:32:48;100634.20;;;21.96
67501;BMP180;54349;52.528;19.760;2022-08-02T04:35:18;100635.40;;;22.00
67501;BMP180;54349;52.528;19.760;2022-08-02T04:37:48;100635.20;;;22.00
67501;BMP180;54349;52.528;19.760;2022-08-02T04:40:37;100639.40;;;22.10
67501;BMP180;54349;52.528;19.760;2022-08-02T04:43:06;100642.80;;;22.02
67501;BMP180;54349;52.528;19.760;2022-08-02T04:45:35;100642.80;;;21.90
67501;BMP180;54349;52.528;19.760;2022-08-02T04:48:05;100645.40;;;21.90
67501;BMP180;54349;52.528;19.760;2022-08-02T04:50:34;100643.40;;;22.00
67501;BMP180;54349;52.528;19.760;2022-08-02T04:53:03;100639.00;;;22.00
67501;BMP180;54349;52.528;19.760;2022-08-02T04:55:32;100636.60;;;22.10
67501;BMP180;54349;52.528;19.760;2022-08-02T04:58:00;100639.00;;;22.10
67501;BMP180;54349;52.528;19.760;2022-08-02T05:00:33;100638.40;;;22.10
67501;BMP180;54349;52.528;19.760;2022-08-02T05:03:02;100643.20;;;22.00
67501;BMP180;54349;52.528;19.760;2022-08-02T05:05:30;100644.00;;;22.00
67501;BMP180;54349;52.528;19.760;2022-08-02T05:07:59;100652.60;;;22.00
67501;BMP180;54349;52.528;19.760;2022-08-02T05:10:27;100654.60;;;22.10
67501;BMP180;54349;52.528;19.760;2022-08-02T05:12:56;100654.60;;;22.10
67501;BMP180;54349;52.528;19.760;2022-08-02T05:15:24;100660.60;;;22.10
67501;BMP180;54349;52.528;19.760;2022-08-02T05:17:58;100660.00;;;22.10
67501;BMP180;54349;52.528;19.760;2022-08-02T05:20:26;100664.60;;;22.00
67501;BMP180;54349;52.528;19.760;2022-08-02T05:22:55;100669.20;;;22.00
67501;BMP180;54349;52.528;19.760;2022-08-02T05:25:23;100673.40;;;22.10
67501;BMP180;54349;52.528;19.760;2022-08-02T05:27:52;100681.20;;;22.10
67501;BMP180;54349;52.528;19.760;2022-08-02T05:30:20;100693.00;;;22.20
67501;BMP180;54349;52.528;19.760;2022-08-02T05:32:50;100694.40;;;22.20
67501;BMP180;54349;52.528;19.760;2022-08-02T05:35:23;100696.80;;;22.02
67501;BMP180;54349;52.528;19.760;2022-08-02T05:37:52;100693.80;;;22.00
67501;BMP180;54349;52.528;19.760;2022-08-02T05:40:20;100699.20;;;22.00
67501;BMP180;54349;52.528;19.760;2022-08-02T05:42:54;100700.60;;;22.10
67501;BMP180;54349;52.528;19.760;2022-08-02T05:45:23;100704.20;;;22.10
67501;BMP180;54349;52.528;19.760;2022-08-02T05:47:51;100714.20;;;22.16
67501;BMP180;54349;52.528;19.760;2022-08-02T05:50:20;100720.80;;;22.20
67501;BMP180;54349;52.528;19.760;2022-08-02T05:53:17;100725.80;;;22.10
67501;BMP180;54349;52.528;19.760;2022-08-02T05:55:58;100732.80;;;22.10
67501;BMP180;54349;52.528;19.760;2022-08-02T06:01:34;100741.00;;;22.20
67501;BMP180;54349;52.528;19.760;2022-08-02T06:04:08;100742.60;;;22.20
67501;BMP180;54349;52.528;19.760;2022-08-02T06:06:42;100744.60;;;22.20
67501;BMP180;54349;52.528;19.760;2022-08-02T06:09:16;100740.00;;;22.10
67501;BMP180;54349;52.528;19.760;2022-08-02T06:11:58;100745.80;;;22.10
67501;BMP180;54349;52.528;19.760;2022-08-02T06:14:40;100749.60;;;22.20
67501;BMP180;54349;52.528;19.760;2022-08-02T06:17:10;100750.20;;;22.20
67501;BMP180;54349;52.528;19.760;2022-08-02T06:19:40;100751.80;;;22.28
67501;BMP180;54349;52.528;19.760;2022-08-02T06:22:19;100755.00;;;22.20
67501;BMP180;54349;52.528;19.760;2022-08-02T06:25:04;100749.80;;;22.10
67501;BMP180;54349;52.528;19.760;2022-08-02T06:27:39;100754.20;;;22.20
67501;BMP180;54349;52.528;19.760;2022-08-02T06:30:09;100756.20;;;22.20
67501;BMP180;54349;52.528;19.760;2022-08-02T06:32:38;100760.40;;;22.24
67501;BMP180;54349;52.528;19.760;2022-08-02T06:35:07;100765.40;;;22.30
67501;BMP180;54349;52.528;19.760;2022-08-02T06:37:43;100766.00;;;22.24
67501;BMP180;54349;52.528;19.760;2022-08-02T06:45:42;100766.80;;;22.30
67501;BMP180;54349;52.528;19.760;2022-08-02T06:48:11;100764.80;;;22.30
67501;BMP180;54349;52.528;19.760;2022-08-02T06:50:40;100766.40;;;22.38
67501;BMP180;54349;52.528;19.760;2022-08-02T06:53:10;100769.00;;;22.30
67501;BMP180;54349;52.528;19.760;2022-08-02T06:55:39;100770.20;;;22.20
67501;BMP180;54349;52.528;19.760;2022-08-02T06:58:12;100769.00;;;22.30
67501;BMP180;54349;52.528;19.760;2022-08-02T07:00:41;100770.40;;;22.30
67501;BMP180;54349;52.528;19.760;2022-08-02T07:03:10;100775.60;;;22.36
67501;BMP180;54349;52.528;19.760;2022-08-02T07:05:40;100775.80;;;22.40
67501;BMP180;54349;52.528;19.760;2022-08-02T07:08:08;100777.40;;;22.30
67501;BMP180;54349;52.528;19.760;2022-08-02T07:10:36;100774.60;;;22.30
67501;BMP180;54349;52.528;19.760;2022-08-02T07:13:04;100773.80;;;22.30
67501;BMP180;54349;52.528;19.760;2022-08-02T07:15:33;100775.00;;;22.40
67501;BMP180;54349;52.528;19.760;2022-08-02T07:18:21;100782.00;;;22.40
67501;BMP180;54349;52.528;19.760;2022-08-02T07:20:50;100786.80;;;22.40
67501;BMP180;54349;52.528;19.760;2022-08-02T07:23:19;100786.20;;;22.30
67501;BMP180;54349;52.528;19.760;2022-08-02T07:25:47;100792.60;;;22.30
67501;BMP180;54349;52.528;19.760;2022-08-02T07:28:31;100790.60;;;22.40
67501;BMP180;54349;52.528;19.760;2022-08-02T07:30:58;100797.60;;;22.40
67501;BMP180;54349;52.528;19.760;2022-08-02T07:33:26;100793.20;;;22.50
67501;BMP180;54349;52.528;19.760;2022-08-02T07:36:07;100793.40;;;22.40
67501;BMP180;54349;52.528;19.760;2022-08-02T07:38:44;100789.60;;;22.40
67501;BMP180;54349;52.528;19.760;2022-08-02T07:41:12;100793.20;;;22.40
67501;BMP180;54349;52.528;19.760;2022-08-02T07:43:40;100790.80;;;22.50
67501;BMP180;54349;52.528;19.760;2022-08-02T07:46:08;100789.60;;;22.50
67501;BMP180;54349;52.528;19.760;2022-08-02T07:48:37;100788.60;;;22.50
67501;BMP180;54349;52.528;19.760;2022-08-02T07:51:05;100785.20;;;22.40
67501;BMP180;54349;52.528;19.760;2022-08-02T07:53:33;100782.80;;;22.42
67501;BMP180;54349;52.528;19.760;2022-08-02T07:56:18;100789.00;;;22.50
67501;BMP180;54349;52.528;19.760;2022-08-02T07:58:47;100784.20;;;22.58
67501;BMP180;54349;52.528;19.760;2022-08-02T08:01:14;100783.80;;;22.60
67501;BMP180;54349;52.528;19.760;2022-08-02T08:03:43;100790.20;;;22.50
67501;BMP180;54349;52.528;19.760;2022-08-02T08:06:12;100797.60;;;22.50
67501;BMP180;54349;52.528;19.760;2022-08-02T08:08:43;100800.60;;;22.50
67501;BMP180;54349;52.528;19.760;2022-08-02T08:11:11;100802.00;;;22.60
67501;BMP180;54349;52.528;19.760;2022-08-02T08:13:39;100801.60;;;22.60
67501;BMP180;54349;52.528;19.760;2022-08-02T08:16:07;100805.00;;;22.50
67501;BMP180;54349;52.528;19.760;2022-08-02T08:18:36;100806.40;;;22.50
67501;BMP180;54349;52.528;19.760;2022-08-02T08:21:04;100805.20;;;22.58
67501;BMP180;54349;52.528;19.760;2022-08-02T08:23:33;100807.00;;;22.60
67501;BMP180;54349;52.528;19.760;2022-08-02T08:26:03;100803.00;;;22.66
67501;BMP180;54349;52.528;19.760;2022-08-02T08:28:31;100807.60;;;22.60
67501;BMP180;54349;52.528;19.760;2022-08-02T08:31:00;100813.60;;;22.50
67501;BMP180;54349;52.528;19.760;2022-08-02T08:33:29;100813.80;;;22.58
67501;BMP180;54349;52.528;19.760;2022-08-02T08:35:57;100814.00;;;22.60
67501;BMP180;54349;52.528;19.760;2022-08-02T08:38:29;100813.60;;;22.70
67501;BMP180;54349;52.528;19.760;2022-08-02T08:40:57;100811.00;;;22.70
67501;BMP180;54349;52.528;19.760;2022-08-02T08:43:26;100817.80;;;22.60
67501;BMP180;54349;52.528;19.760;2022-08-02T08:45:55;100821.60;;;22.54
67501;BMP180;54349;52.528;19.760;2022-08-02T08:48:24;100822.00;;;22.60
67501;BMP180;54349;52.528;19.760;2022-08-02T08:51:07;100822.00;;;22.66
67501;BMP180;54349;52.528;19.760;2022-08-02T08:53:47;100826.20;;;22.70
67501;BMP180;54349;52.528;19.760;2022-08-02T08:56:16;100824.80;;;22.60
67501;BMP180;54349;52.528;19.760;2022-08-02T08:58:45;100826.20;;;22.60
67501;BMP180;54349;52.528;19.760;2022-08-02T09:01:14;100824.40;;;22.60
67501;BMP180;54349;52.528;19.760;2022-08-02T09:03:44;100826.40;;;22.70
67501;BMP180;54349;52.528;19.760;2022-08-02T09:06:14;100831.00;;;22.70
67501;BMP180;54349;52.528;19.760;2022-08-02T09:08:43;100835.40;;;22.60
67501;BMP180;54349;52.528;19.760;2022-08-02T09:11:24;100838.40;;;22.60
67501;BMP180;54349;52.528;19.760;2022-08-02T09:13:57;100836.40;;;22.60
67501;BMP180;54349;52.528;19.760;2022-08-02T09:16:39;100834.20;;;22.70
67501;BMP180;54349;52.528;19.760;2022-08-02T09:19:23;100838.80;;;22.70
67501;BMP180;54349;52.528;19.760;2022-08-02T09:22:13;100837.40;;;22.60
67501;BMP180;54349;52.528;19.760;2022-08-02T09:24:48;100833.40;;;22.60
67501;BMP180;54349;52.528;19.760;2022-08-02T09:27:19;100830.40;;;22.70
67501;BMP180;54349;52.528;19.760;2022-08-02T09:29:52;100835.40;;;22.70
67501;BMP180;54349;52.528;19.760;2022-08-02T09:32:44;100839.00;;;22.80
67501;BMP180;54349;52.528;19.760;2022-08-02T09:35:33;100838.40;;;22.70
67501;BMP180;54349;52.528;19.760;2022-08-02T09:38:22;100832.40;;;22.60
67501;BMP180;54349;52.528;19.760;2022-08-02T09:40:53;100832.00;;;22.70
67501;BMP180;54349;52.528;19.760;2022-08-02T09:43:42;100836.60;;;22.72
67501;BMP180;54349;52.528;19.760;2022-08-02T09:46:44;100837.40;;;22.80
67501;BMP180;54349;52.528;19.760;2022-08-02T09:49:17;100832.40;;;22.68
67501;BMP180;54349;52.528;19.760;2022-08-02T09:54:22;100830.80;;;22.70
67501;BMP180;54349;52.528;19.760;2022-08-02T09:56:58;100836.40;;;22.80
67501;BMP180;54349;52.528;19.760;2022-08-02T09:59:28;100833.00;;;22.80
67501;BMP180;54349;52.528;19.760;2022-08-02T10:02:00;100829.40;;;22.70
67501;BMP180;54349;52.528;19.760;2022-08-02T10:04:31;100831.40;;;22.70
67501;BMP180;54349;52.528;19.760;2022-08-02T10:07:20;100833.80;;;22.70
67501;BMP180;54349;52.528;19.760;2022-08-02T10:09:51;100829.60;;;22.80
67501;BMP180;54349;52.528;19.760;2022-08-02T10:12:19;100826.40;;;22.80
67501;BMP180;54349;52.528;19.760;2022-08-02T10:14:50;100824.00;;;22.80
67501;BMP180;54349;52.528;19.760;2022-08-02T10:17:20;100821.60;;;22.70
67501;BMP180;54349;52.528;19.760;2022-08-02T10:19:48;100822.60;;;22.70
67501;BMP180;54349;52.528;19.760;2022-08-02T10:22:33;100822.00;;;22.80
67501;BMP180;54349;52.528;19.760;2022-08-02T10:25:03;100820.80;;;22.80
67501;BMP180;54349;52.528;19.760;2022-08-02T10:27:35;100825.40;;;22.90
67501;BMP180;54349;52.528;19.760;2022-08-02T10:30:26;100828.80;;;22.80
67501;BMP180;54349;52.528;19.760;2022-08-02T10:32:57;100828.40;;;22.70
67501;BMP180;54349;52.528;19.760;2022-08-02T10:35:28;100835.60;;;22.76
67501;BMP180;54349;52.528;19.760;2022-08-02T10:38:05;100836.40;;;22.80
67501;BMP180;54349;52.528;19.760;2022-08-02T10:40:54;100841.20;;;22.90
67501;BMP180;54349;52.528;19.760;2022-08-02T10:46:36;100838.40;;;22.80
67501;BMP180;54349;52.528;19.760;2022-08-02T10:49:10;100846.80;;;22.70
67501;BMP180;54349;52.528;19.760;2022-08-02T10:56:59;100831.60;;;22.90
67501;BMP180;54349;52.528;19.760;2022-08-02T10:59:35;100834.00;;;22.90
67501;BMP180;54349;52.528;19.760;2022-08-02T11:02:05;100831.20;;;22.80
67501;BMP180;54349;52.528;19.760;2022-08-02T11:09:36;100827.80;;;22.90
67501;BMP180;54349;52.528;19.760;2022-08-02T11:12:11;100823.20;;;22.98
67501;BMP180;54349;52.528;19.760;2022-08-02T11:14:57;100826.80;;;22.90
67501;BMP180;54349;52.528;19.760;2022-08-02T11:17:27;100829.80;;;22.80
67501;BMP180;54349;52.528;19.760;2022-08-02T11:22:39;100828.40;;;22.90
67501;BMP180;54349;52.528;19.760;2022-08-02T11:27:54;100817.00;;;23.06
67501;BMP180;54349;52.528;19.760;2022-08-02T11:30:25;100815.40;;;22.96
67501;BMP180;54349;52.528;19.760;2022-08-02T11:32:59;100818.60;;;22.90
67501;BMP180;54349;52.528;19.760;2022-08-02T11:35:38;100817.60;;;22.90
67501;BMP180;54349;52.528;19.760;2022-08-02T11:38:20;100821.60;;;23.00
67501;BMP180;54349;52.528;19.760;2022-08-02T11:40:49;100822.00;;;23.10
67501;BMP180;54349;52.528;19.760;2022-08-02T11:43:25;100818.80;;;23.10
67501;BMP180;54349;52.528;19.760;2022-08-02T11:45:54;100824.40;;;23.00
67501;BMP180;54349;52.528;19.760;2022-08-02T11:48:36;100822.20;;;22.90
67501;BMP180;54349;52.528;19.760;2022-08-02T11:51:14;100824.40;;;23.00
67501;BMP180;54349;52.528;19.760;2022-08-02T11:53:53;100828.40;;;23.00
67501;BMP180;54349;52.528;19.760;2022-08-02T11:56:30;100824.20;;;23.10
67501;BMP180;54349;52.528;19.760;2022-08-02T11:59:07;100820.40;;;23.18
67501;BMP180;54349;52.528;19.760;2022-08-02T12:01:38;100822.40;;;23.00
67501;BMP180;54349;52.528;19.760;2022-08-02T12:04:17;100822.40;;;23.00
67501;BMP180;54349;52.528;19.760;2022-08-02T12:06:57;100819.20;;;23.10
67501;BMP180;54349;52.528;19.760;2022-08-02T12:09:28;100820.80;;;23.16
67501;BMP180;54349;52.528;19.760;2022-08-02T12:11:58;100823.20;;;23.20
67501;BMP180;54349;52.528;19.760;2022-08-02T12:14:29;100823.00;;;23.20
67501;BMP180;54349;52.528;19.760;2022-08-02T12:16:58;100825.00;;;23.06
67501;BMP180;54349;52.528;19.760;2022-08-02T12:19:47;100822.60;;;22.90
67501;BMP180;54349;52.528;19.760;2022-08-02T12:22:25;100819.00;;;22.90
67501;BMP180;54349;52.528;19.760;2022-08-02T12:24:56;100813.20;;;23.00
67501;BMP180;54349;52.528;19.760;2022-08-02T12:27:34;100818.00;;;23.08
67501;BMP180;54349;52.528;19.760;2022-08-02T12:30:09;100812.40;;;23.20
67501;BMP180;54349;52.528;19.760;2022-08-02T12:32:39;100812.80;;;23.20
67501;BMP180;54349;52.528;19.760;2022-08-02T12:35:16;100815.60;;;23.10
67501;BMP180;54349;52.528;19.760;2022-08-02T12:37:54;100814.60;;;23.00
67501;BMP180;54349;52.528;19.760;2022-08-02T12:40:31;100811.80;;;23.10
67501;BMP180;54349;52.528;19.760;2022-08-02T12:43:05;100816.20;;;23.20
67501;BMP180;54349;52.528;19.760;2022-08-02T12:45:47;100812.40;;;23.30
67501;BMP180;54349;52.528;19.760;2022-08-02T12:48:33;100806.00;;;23.40
67501;BMP180;54349;52.528;19.760;2022-08-02T12:53:48;100810.00;;;23.20
67501;BMP180;54349;52.528;19.760;2022-08-02T12:56:32;100814.80;;;23.10
67501;BMP180;54349;52.528;19.760;2022-08-02T12:59:01;100813.20;;;23.10
67501;BMP180;54349;52.528;19.760;2022-08-02T13:01:30;100815.60;;;23.24
67501;BMP180;54349;52.528;19.760;2022-08-02T13:03:58;100815.60;;;23.36
67501;BMP180;54349;52.528;19.760;2022-08-02T13:06:40;100812.80;;;23.40
67501;BMP180;54349;52.528;19.760;2022-08-02T13:09:15;100812.20;;;23.30
67501;BMP180;54349;52.528;19.760;2022-08-02T13:11:44;100809.60;;;23.20
67501;BMP180;54349;52.528;19.760;2022-08-02T13:14:13;100808.60;;;23.10
67501;BMP180;54349;52.528;19.760;2022-08-02T13:16:44;100807.80;;;23.20
67501;BMP180;54349;52.528;19.760;2022-08-02T13:19:14;100807.00;;;23.30
67501;BMP180;54349;52.528;19.760;2022-08-02T13:21:44;100803.80;;;23.40
67501;BMP180;54349;52.528;19.760;2022-08-02T13:24:31;100803.80;;;23.50
67501;BMP180;54349;52.528;19.760;2022-08-02T13:27:21;100802.60;;;23.40
67501;BMP180;54349;52.528;19.760;2022-08-02T13:29:51;100801.80;;;23.28
67501;BMP180;54349;52.528;19.760;2022-08-02T13:32:21;100797.00;;;23.20
67501;BMP180;54349;52.528;19.760;2022-08-02T13:34:50;100800.80;;;23.20
67501;BMP180;54349;52.528;19.760;2022-08-02T13:37:18;100803.40;;;23.30
67501;BMP180;54349;52.528;19.760;2022-08-02T13:39:47;100800.40;;;23.40
67501;BMP180;54349;52.528;19.760;2022-08-02T13:42:35;100795.20;;;23.50
67501;BMP180;54349;52.528;19.760;2022-08-02T13:45:04;100797.60;;;23.50
67501;BMP180;54349;52.528;19.760;2022-08-02T13:47:42;100799.60;;;23.40
67501;BMP180;54349;52.528;19.760;2022-08-02T13:50:30;100796.20;;;23.22
67501;BMP180;54349;52.528;19.760;2022-08-02T13:52:58;100789.80;;;23.20
67501;BMP180;54349;52.528;19.760;2022-08-02T13:55:26;100794.60;;;23.30
67501;BMP180;54349;52.528;19.760;2022-08-02T13:57:55;100792.80;;;23.40
67501;BMP180;54349;52.528;19.760;2022-08-02T14:00:24;100793.60;;;23.50
67501;BMP180;54349;52.528;19.760;2022-08-02T14:03:07;100796.80;;;23.62
67501;BMP180;54349;52.528;19.760;2022-08-02T14:05:41;100789.60;;;23.60
67501;BMP180;54349;52.528;19.760;2022-08-02T14:08:19;100787.60;;;23.48
67501;BMP180;54349;52.528;19.760;2022-08-02T14:10:50;100791.80;;;23.38
67501;BMP180;54349;52.528;19.760;2022-08-02T14:13:19;100788.80;;;23.30
67501;BMP180;54349;52.528;19.760;2022-08-02T14:15:47;100793.20;;;23.40
67501;BMP180;54349;52.528;19.760;2022-08-02T14:18:15;100787.00;;;23.50
67501;BMP180;54349;52.528;19.760;2022-08-02T14:20:44;100790.80;;;23.60
67501;BMP180;54349;52.528;19.760;2022-08-02T14:23:13;100790.80;;;23.70
67501;BMP180;54349;52.528;19.760;2022-08-02T14:25:42;100796.60;;;23.70
67501;BMP180;54349;52.528;19.760;2022-08-02T14:28:10;100792.00;;;23.56
67501;BMP180;54349;52.528;19.760;2022-08-02T14:30:38;100788.00;;;23.40
67501;BMP180;54349;52.528;19.760;2022-08-02T14:33:07;100787.40;;;23.34
67501;BMP180;54349;52.528;19.760;2022-08-02T14:35:35;100785.00;;;23.40
67501;BMP180;54349;52.528;19.760;2022-08-02T14:38:03;100786.80;;;23.50
67501;BMP180;54349;52.528;19.760;2022-08-02T14:40:32;100783.40;;;23.60
67501;BMP180;54349;52.528;19.760;2022-08-02T14:43:00;100785.20;;;23.72
67501;BMP180;54349;52.528;19.760;2022-08-02T14:45:30;100790.40;;;23.80
67501;BMP180;54349;52.528;19.760;2022-08-02T14:48:09;100789.00;;;23.64
67501;BMP180;54349;52.528;19.760;2022-08-02T14:50:38;100778.40;;;23.50
67501;BMP180;54349;52.528;19.760;2022-08-02T14:53:07;100781.40;;;23.40